CW3161 Weather Reports


time (UTC)temp
F
wind
direction
speed
knots
gust
knots
rain 1hr
in
rain 24hr
in
rain mn
in
humidity
%
barometer
mb
20220627210009 96 68 4.3 9.6 0.00 0.00 0.00 15 1014.1
20220627204512 97 72 7.0 13.0 0.00 0.00 0.00 15 1014.2
20220627203006 96 76 5.2 9.6 0.00 0.00 0.00 17 1014.3
20220627201510 97 338 1.7 7.8 0.00 0.00 0.00 19 1014.4
20220627200004 96 93 6.1 12.2 0.00 0.00 0.00 18 1014.5
20220627194503 97 62 3.5 7.8 0.00 0.00 0.00 18 1014.5
20220627193102 96 99 0.9 9.6 0.00 0.00 0.00 19 1014.5
20220627191559 95 8 0.9 8.7 0.00 0.00 0.00 20 1014.5
20220627190058 96 72 3.5 7.8 0.00 0.00 0.00 18 1014.6
20220627184558 96 85 1.7 6.1 0.00 0.00 0.00 19 1014.5
20220627183054 94 43 0.0 5.2 0.00 0.00 0.00 22 1014.6
20220627181553 93 73 0.9 6.1 0.00 0.00 0.00 21 1014.7
20220627180103 93 67 0.9 4.3 0.00 0.00 0.00 24 1014.6
20220627174551 94 92 2.6 6.1 0.00 0.00 0.00 23 1014.6
20220627173055 93 285 0.0 4.3 0.00 0.00 0.00 24 1014.6
20220627171544 92 287 0.0 2.6 0.00 0.00 0.00 27 1014.5
20220627170042 91 258 0.0 1.7 0.00 0.00 0.00 27 1014.7
20220627164538 90 281 0.9 5.2 0.00 0.00 0.00 28 1014.7
20220627163035 89 330 0.0 3.5 0.00 0.00 0.00 28 1014.8
20220627161543 86 262 0.0 5.2 0.00 0.00 0.00 32 1015.0
20220627160028 85 252 0.0 5.2 0.00 0.00 0.00 30 1014.9
20220627154526 84 245 0.0 5.2 0.00 0.00 0.00 34 1015.0
20220627153036 82 264 1.7 6.1 0.00 0.00 0.00 32 1015.0
20220627151518 80 285 2.6 7.8 0.00 0.00 0.00 34 1015.0
20220627150015 79 260 0.0 7.0 0.00 0.00 0.00 35 1015.0
20220627144511 78 258 0.9 3.5 0.00 0.00 0.00 36 1014.8
20220627143005 76 276 0.9 5.2 0.00 0.00 0.00 37 1014.6
20220627141504 74 287 0.0 6.1 0.00 0.00 0.00 38 1014.3
20220627140110 72 274 0.0 2.6 0.00 0.00 0.00 39 1014.2
20220627134601 71 276 0.9 4.3 0.00 0.00 0.00 39 1014.2
20220627134501 71 293 0.9 6.1 0.00 0.00 0.00 39 1014.1
20220627133059 70 289 1.7 5.2 0.00 0.00 0.00 39 1014.0
20220627131558 71 283 0.0 2.6 0.00 0.00 0.00 38 1013.9
20220627130057 71 283 0.0 1.7 0.00 0.00 0.00 38 1013.9
20220627124556 70 295 0.0 1.7 0.00 0.00 0.00 38 1013.8
20220627123054 71 276 0.0 3.5 0.00 0.00 0.00 38 1013.7
20220627121552 71 241 0.9 3.5 0.00 0.00 0.00 38 1013.7
20220627120051 70 236 0.0 2.6 0.00 0.00 0.00 38 1013.6
20220627114551 71 269 0.0 3.5 0.00 0.00 0.00 38 1013.5
20220627113048 71 269 0.0 2.6 0.00 0.00 0.00 38 1013.4
20220627111558 71 263 0.0 2.6 0.00 0.00 0.00 38 1013.3
20220627110045 72 272 0.0 2.6 0.00 0.00 0.00 38 1013.3
20220627104544 72 272 0.0 3.5 0.00 0.00 0.00 38 1013.1
20220627103042 72 268 0.0 0.9 0.00 0.00 0.00 37 1013.2
20220627101541 72 269 0.0 4.3 0.00 0.00 0.00 37 1013.1
20220627100039 72 308 0.0 5.2 0.00 0.00 0.00 38 1012.9
20220627094538 72 285 0.0 6.1 0.00 0.00 0.00 38 1012.9
20220627093037 72 285 0.0 2.6 0.00 0.00 0.00 38 1012.8
20220627091534 72 299 0.0 1.7 0.00 0.00 0.00 38 1012.8
20220627090038 73 271 0.0 1.7 0.00 0.00 0.00 37 1012.8
20220627084531 73 270 0.0 1.7 0.00 0.00 0.00 37 1012.8
20220627083029 74 262 0.9 5.2 0.00 0.00 0.00 36 1012.8
20220627081531 74 283 0.0 2.6 0.00 0.00 0.00 36 1012.8
20220627080027 74 224 0.0 1.7 0.00 0.00 0.00 36 1012.7
20220627074525 74 283 0.0 3.5 0.00 0.00 0.00 35 1012.7
20220627073023 74 230 0.0 3.5 0.00 0.00 0.00 35 1012.8
20220627071520 75 266 0.9 5.2 0.00 0.00 0.00 35 1012.8
20220627070020 75 279 0.0 0.9 0.00 0.00 0.00 34 1012.8
20220627064517 76 297 0.0 3.5 0.00 0.00 0.00 33 1013.0
20220627063016 76 270 0.0 1.7 0.00 0.00 0.00 33 1012.8
20220627061514 77 280 0.0 0.9 0.00 0.00 0.00 32 1012.9
20220627060018 78 216 0.0 2.6 0.00 0.00 0.00 32 1013.0
20220627054513 77 258 0.0 2.6 0.00 0.00 0.00 32 1013.1
20220627053011 78 258 0.0 0.9 0.00 0.00 0.00 31 1013.0
20220627051511 79 260 0.0 0.9 0.00 0.00 0.00 30 1013.0
20220627050010 80 251 0.0 0.0 0.00 0.00 0.00 28 1012.9
20220627044511 81 118 0.0 0.0 0.00 0.00 0.00 28 1012.7
20220627043012 83 118 0.0 0.9 0.00 0.00 0.00 26 1012.7
20220627041509 85 102 0.0 2.6 0.00 0.00 0.00 25 1012.5
20220627040010 85 77 0.0 1.7 0.00 0.00 0.00 25 1012.5
20220627034508 85 62 0.0 1.7 0.00 0.00 0.00 24 1012.5
20220627033008 87 66 0.9 2.6 0.00 0.00 0.00 23 1012.3
20220627031520 89 65 0.0 5.2 0.00 0.00 0.00 21 1012.4
20220627030016 90 82 1.7 5.2 0.00 0.00 0.00 20 1012.4
20220627024508 91 72 3.5 7.8 0.00 0.00 0.00 20 1012.3
20220627023010 92 78 4.3 7.8 0.00 0.00 0.00 19 1012.3
20220627021505 93 116 3.5 10.4 0.00 0.00 0.00 18 1012.2
20220627020004 93 64 5.2 11.3 0.00 0.00 0.00 16 1012.2
20220627014605 94 68 5.2 10.4 0.00 0.00 0.00 15 1012.1
20220627013002 94 79 5.2 9.6 0.00 0.00 0.00 15 1012.0
20220627011600 95 51 2.6 11.3 0.00 0.00 0.00 16 1012.0
20220627010100 95 79 6.1 13.0 0.00 0.00 0.00 16 1012.0
20220627004601 96 72 2.6 10.4 0.00 0.00 0.00 16 1011.9
20220627003058 96 52 3.5 11.3 0.00 0.00 0.00 15 1012.0
20220627001556 97 71 1.7 7.0 0.00 0.00 0.00 14 1012.0
20220627000058 96 87 3.5 9.6 0.00 0.00 0.00 14 1012.1
20220626234555 96 21 4.3 9.6 0.00 0.00 0.00 16 1012.2
20220626233055 96 40 3.5 13.0 0.00 0.00 0.00 16 1012.3
20220626231554 97 79 1.7 9.6 0.00 0.00 0.00 16 1012.4
20220626230051 96 22 6.1 12.2 0.00 0.00 0.00 14 1012.5
20220626224552 96 94 3.5 9.6 0.00 0.00 0.00 15 1012.6
20220626223112 96 46 5.2 10.4 0.00 0.00 0.00 14 1012.8
20220626221550 97 93 0.9 8.7 0.00 0.00 0.00 14 1012.8
20220626220048 98 37 0.9 8.7 0.00 0.00 0.00 14 1012.9
20220626214545 97 97 2.6 9.6 0.00 0.00 0.00 15 1012.9
20220626213045 97 74 2.6 7.8 0.00 0.00 0.00 15 1013.0
20220626211543 96 71 5.2 9.6 0.00 0.00 0.00 15 1013.0